地図

経路データ

SID SEASON NUMBER BASIN SUBBASIN NAME ISO_TIME NATURE LAT LON WMO_WIND WMO_PRES WMO_AGENCY TRACK_TYPE DIST2LAND LANDFALL IFLAG USA_AGENCY USA_ATCF_ID USA_LAT USA_LON USA_RECORD USA_STATUS USA_WIND USA_PRES USA_SSHS USA_R34_NE USA_R34_SE USA_R34_SW USA_R34_NW USA_R50_NE USA_R50_SE USA_R50_SW USA_R50_NW USA_R64_NE USA_R64_SE USA_R64_SW USA_R64_NW USA_POCI USA_ROCI USA_RMW USA_EYE TOKYO_LAT TOKYO_LON TOKYO_GRADE TOKYO_WIND TOKYO_PRES TOKYO_R50_DIR TOKYO_R50_LONG TOKYO_R50_SHORT TOKYO_R30_DIR TOKYO_R30_LONG TOKYO_R30_SHORT TOKYO_LAND CMA_LAT CMA_LON CMA_CAT CMA_WIND CMA_PRES HKO_LAT HKO_LON HKO_CAT HKO_WIND HKO_PRES NEWDELHI_LAT NEWDELHI_LON NEWDELHI_GRADE NEWDELHI_WIND NEWDELHI_PRES NEWDELHI_CI NEWDELHI_DP NEWDELHI_POCI REUNION_LAT REUNION_LON REUNION_TYPE REUNION_WIND REUNION_PRES REUNION_TNUM REUNION_CI REUNION_RMW REUNION_R34_NE REUNION_R34_SE REUNION_R34_SW REUNION_R34_NW REUNION_R50_NE REUNION_R50_SE REUNION_R50_SW REUNION_R50_NW REUNION_R64_NE REUNION_R64_SE REUNION_R64_SW REUNION_R64_NW BOM_LAT BOM_LON BOM_TYPE BOM_WIND BOM_PRES BOM_TNUM BOM_CI BOM_RMW BOM_R34_NE BOM_R34_SE BOM_R34_SW BOM_R34_NW BOM_R50_NE BOM_R50_SE BOM_R50_SW BOM_R50_NW BOM_R64_NE BOM_R64_SE BOM_R64_SW BOM_R64_NW BOM_ROCI BOM_POCI BOM_EYE BOM_POS_METHOD BOM_PRES_METHOD NADI_LAT NADI_LON NADI_CAT NADI_WIND NADI_PRES WELLINGTON_LAT WELLINGTON_LON WELLINGTON_WIND WELLINGTON_PRES DS824_LAT DS824_LON DS824_STAGE DS824_WIND DS824_PRES TD9636_LAT TD9636_LON TD9636_STAGE TD9636_WIND TD9636_PRES TD9635_LAT TD9635_LON TD9635_WIND TD9635_PRES TD9635_ROCI NEUMANN_LAT NEUMANN_LON NEUMANN_CLASS NEUMANN_WIND NEUMANN_PRES MLC_LAT MLC_LON MLC_CLASS MLC_WIND MLC_PRES USA_GUST BOM_GUST BOM_GUST_PER REUNION_GUST REUNION_GUST_PER USA_SEAHGT USA_SEARAD_NE USA_SEARAD_SE USA_SEARAD_SW USA_SEARAD_NW STORM_SPEED STORM_DIR
1938268N13118 1938 51 WP MM NOT_NAMED 1938-09-25 10:00:00 NR 13.2000 118.200 main 228 228 __________O___ -1 13.2000 118.200 7 11 270
1938268N13118 1938 51 WP MM NOT_NAMED 1938-09-25 12:00:00 NR 13.1997 117.825 main 271 271 __________P___ -1 13.1997 117.825 7 11 270
1938268N13118 1938 51 WP MM NOT_NAMED 1938-09-25 15:00:00 NR 13.1989 117.265 main 319 327 __________P___ -1 13.1989 117.265 7 11 270
1938268N13118 1938 51 WP MM NOT_NAMED 1938-09-25 18:00:00 NR 13.1984 116.714 main 369 369 __________P___ -1 13.1984 116.714 7 11 270
1938268N13118 1938 51 WP MM NOT_NAMED 1938-09-25 21:00:00 NR 13.1992 116.176 main 413 423 __________P___ -1 13.1992 116.176 7 10 270
1938268N13118 1938 51 WP MM NOT_NAMED 1938-09-25 22:00:00 NR 13.2000 116.000 main 432 432 __________O___ -1 13.2000 116.000 7 10 270
1938268N13118 1938 51 WP MM NOT_NAMED 1938-09-26 00:00:00 NR 13.2028 115.655 main 460 470 __________P___ -1 13.2028 115.655 7 10 271
1938268N13118 1938 51 WP MM NOT_NAMED 1938-09-26 03:00:00 NR 13.2133 115.151 main 508 518 __________P___ -1 13.2133 115.151 7 10 272
1938268N13118 1938 51 WP MM NOT_NAMED 1938-09-26 06:00:00 NR 13.2370 114.656 main 558 511 __________P___ -1 13.2370 114.656 7 10 274
1938268N13118 1938 51 WP MM NOT_NAMED 1938-09-26 09:00:00 NR 13.2802 114.164 main 511 489 __________P___ -1 13.2802 114.164 7 10 276
1938268N13118 1938 51 WP MM NOT_NAMED 1938-09-26 10:00:00 NR 13.3000 114.000 main 489 457 __________O___ -1 13.3000 114.000 2 10 277
1938268N13118 1938 51 WP MM NOT_NAMED 1938-09-26 12:00:00 NR 13.3414 113.669 main 457 404 __________P___ -1 13.3414 113.669 2 10 279
1938268N13118 1938 51 WP MM NOT_NAMED 1938-09-26 15:00:00 NR 13.4225 113.173 main 404 353 __________P___ -1 13.4225 113.173 2 10 281
1938268N13118 1938 51 WP MM NOT_NAMED 1938-09-26 18:00:00 NR 13.5262 112.674 main 353 302 __________P___ -1 13.5262 112.674 2 10 283
1938268N13118 1938 51 WP MM NOT_NAMED 1938-09-26 21:00:00 NR 13.6528 112.170 main 305 285 __________P___ -1 13.6528 112.170 2 10 285
1938268N13118 1938 51 WP MM NOT_NAMED 1938-09-26 22:00:00 NR 13.7000 112.000 main 285 248 __________O___ -1 13.7000 112.000 2 11 286
1938268N13118 1938 51 WP MM NOT_NAMED 1938-09-27 00:00:00 NR 13.7943 111.645 main 248 194 __________P___ -1 13.7943 111.645 2 11 286
1938268N13118 1938 51 WP MM NOT_NAMED 1938-09-27 03:00:00 NR 13.9545 111.106 main 194 142 __________P___ -1 13.9545 111.106 2 11 288
1938268N13118 1938 51 WP MM NOT_NAMED 1938-09-27 06:00:00 NR 14.1346 110.574 main 142 97 __________P___ -1 14.1346 110.574 2 11 290
1938268N13118 1938 51 WP MM NOT_NAMED 1938-09-27 09:00:00 NR 14.3313 110.063 main 97 82 __________P___ -1 14.3313 110.063 2 11 292
1938268N13118 1938 51 WP MM NOT_NAMED 1938-09-27 10:00:00 NR 14.4000 109.900 main 82 53 __________O___ -1 14.4000 109.900 2 10 295
1938268N13118 1938 51 WP MM NOT_NAMED 1938-09-27 12:00:00 NR 14.5489 109.578 main 53 10 __________P___ -1 14.5489 109.578 2 10 297
1938268N13118 1938 51 WP MM NOT_NAMED 1938-09-27 15:00:00 NR 14.7853 109.120 main 10 0 __________P___ -1 14.7853 109.120 2 10 299
1938268N13118 1938 51 WP MM NOT_NAMED 1938-09-27 18:00:00 NR 15.0206 108.698 main 0 0 __________P___ -1 15.0206 108.698 2 9 300
1938268N13118 1938 51 WP MM NOT_NAMED 1938-09-27 21:00:00 NR 15.2359 108.317 main 0 0 __________P___ -1 15.2359 108.317 2 8 300
1938268N13118 1938 51 WP MM NOT_NAMED 1938-09-27 22:00:00 NR 15.3000 108.200 main 0 0 __________O___ -1 15.3000 108.200 2 7 298
1938268N13118 1938 51 WP MM NOT_NAMED 1938-09-28 00:00:00 NR 15.4084 107.985 main 0 0 __________P___ -1 15.4084 107.985 2 7 297
1938268N13118 1938 51 WP MM NOT_NAMED 1938-09-28 03:00:00 NR 15.5462 107.700 main 0 0 __________P___ -1 15.5462 107.700 2 6 296
1938268N13118 1938 51 WP MM NOT_NAMED 1938-09-28 06:00:00 NR 15.6625 107.442 main 0 0 __________P___ -1 15.6625 107.442 2 5 294
1938268N13118 1938 51 WP MM NOT_NAMED 1938-09-28 09:00:00 NR 15.7665 107.188 main 0 0 __________P___ -1 15.7665 107.188 2 5 293
1938268N13118 1938 51 WP MM NOT_NAMED 1938-09-28 10:00:00 NR 15.8000 107.100 main 0 0 __________O___ -1 15.8000 107.100 2 6 291
1938268N13118 1938 51 WP MM NOT_NAMED 1938-09-28 12:00:00 NR 15.8669 106.917 main 0 0 __________P___ -1 15.8669 106.917 2 6 290
1938268N13118 1938 51 WP MM NOT_NAMED 1938-09-28 15:00:00 NR 15.9672 106.626 main 0 0 __________P___ -1 15.9672 106.626 2 6 289
1938268N13118 1938 51 WP MM NOT_NAMED 1938-09-28 18:00:00 NR 16.0672 106.320 main 0 0 __________P___ -1 16.0672 106.320 2 6 289
1938268N13118 1938 51 WP MM NOT_NAMED 1938-09-28 21:00:00 NR 16.1669 106.006 main 0 0 __________P___ -1 16.1669 106.006 2 6 288
1938268N13118 1938 51 WP MM NOT_NAMED 1938-09-28 22:00:00 NR 16.2000 105.900 main 0 __________O___ -1 16.2000 105.900 2 6 287

デジタル台風データ・検索

IBTrACS Databaseについて

本データベースは、米国NOAAが公開する1842年以降の世界の熱帯低気圧のベストトラックデータアーカイブInternational Best Track Archive for Climate Stewardship (IBTrACS)を、ウェブで閲覧しやすい形式に変換したものです。

最終更新日:2021-10-25